Time,TemperatureF,DewpointF,PressureIn,WindDirection,WindDirectionDegrees,WindSpeedMPH,WindSpeedGustMPH,Humidity,HourlyPrecipIn,Conditions,Clouds,dailyrainin,SoftwareType,DateUTC
2013-03-31 00:02:00,66.0,-99.9,30.07,SSW,210,9.0,10.0,-999,-99.99,,,-99.99,,2013-03-31 05:02:00,
2013-03-31 00:13:00,66.0,-99.9,30.07,SSW,208,10.0,10.0,-999,-99.99,,,-99.99,,2013-03-31 05:13:00,
2013-03-31 00:22:00,66.0,-99.9,30.07,SW,217,9.0,10.0,-999,-99.99,,,-99.99,,2013-03-31 05:22:00,
2013-03-31 00:32:00,66.0,-99.9,30.07,SW,214,9.0,10.0,-999,-99.99,,,-99.99,,2013-03-31 05:32:00,
2013-03-31 00:42:00,66.0,-99.9,30.07,SW,220,10.0,10.0,-999,-99.99,,,-99.99,,2013-03-31 05:42:00,
2013-03-31 00:53:00,66.0,-99.9,30.07,SW,220,11.0,11.0,-999,-99.99,,,-99.99,,2013-03-31 05:53:00,
2013-03-31 01:02:00,66.0,-99.9,30.06,SW,219,11.0,11.0,-999,-99.99,,,-99.99,,2013-03-31 06:02:00,
2013-03-31 01:12:00,66.0,-99.9,30.06,SW,219,11.0,11.0,-999,-99.99,,,-99.99,,2013-03-31 06:12:00,
2013-03-31 01:23:00,66.0,-99.9,30.06,SSW,213,13.0,14.0,-999,-99.99,,,-99.99,,2013-03-31 06:23:00,
2013-03-31 01:33:00,66.0,-99.9,30.06,SSW,210,13.0,13.0,-999,-99.99,,,-99.99,,2013-03-31 06:33:00,
2013-03-31 01:42:00,66.0,-99.9,30.05,SW,214,13.0,13.0,-999,-99.99,,,-99.99,,2013-03-31 06:42:00,
2013-03-31 01:53:00,66.0,-99.9,30.05,SW,224,13.0,14.0,-999,-99.99,,,-99.99,,2013-03-31 06:53:00,
2013-03-31 02:02:00,66.0,-99.9,30.04,SW,226,14.0,15.0,-999,-99.99,,,-99.99,,2013-03-31 07:02:00,
2013-03-31 02:12:00,66.0,-99.9,30.04,SW,228,12.0,13.0,-999,-99.99,,,-99.99,,2013-03-31 07:12:00,
2013-03-31 02:22:00,65.0,-99.9,30.04,SW,228,12.0,12.0,-999,-99.99,,,-99.99,,2013-03-31 07:22:00,
2013-03-31 02:33:00,65.0,-99.9,30.04,SW,225,12.0,13.0,-999,-99.99,,,-99.99,,2013-03-31 07:33:00,
2013-03-31 02:43:00,65.0,-99.9,30.03,SW,221,12.0,13.0,-999,-99.99,,,-99.99,,2013-03-31 07:43:00,
2013-03-31 02:53:00,66.0,-99.9,30.03,SW,225,11.0,11.0,-999,-99.99,,,-99.99,,2013-03-31 07:53:00,
2013-03-31 03:02:00,66.0,-99.9,30.03,SW,229,11.0,11.0,-999,-99.99,,,-99.99,,2013-03-31 08:02:00,
2013-03-31 03:12:00,66.0,-99.9,30.03,SW,233,10.0,11.0,-999,-99.99,,,-99.99,,2013-03-31 08:12:00,
2013-03-31 03:22:00,66.0,-99.9,30.02,SW,236,11.0,12.0,-999,-99.99,,,-99.99,,2013-03-31 08:22:00,
2013-03-31 03:32:00,65.0,-99.9,30.02,WSW,238,12.0,12.0,-999,-99.99,,,-99.99,,2013-03-31 08:32:00,
2013-03-31 03:42:00,65.0,-99.9,30.02,WSW,239,12.0,12.0,-999,-99.99,,,-99.99,,2013-03-31 08:42:00,
2013-03-31 03:52:00,65.0,-99.9,30.02,WSW,246,12.0,12.0,-999,-99.99,,,-99.99,,2013-03-31 08:52:00,
2013-03-31 04:02:00,65.0,-99.9,30.02,WSW,247,11.0,12.0,-999,-99.99,,,-99.99,,2013-03-31 09:02:00,
2013-03-31 04:12:00,65.0,-99.9,30.01,WSW,250,11.0,11.0,-999,-99.99,,,-99.99,,2013-03-31 09:12:00,
2013-03-31 04:22:00,65.0,-99.9,30.01,West,265,7.0,8.0,-999,-99.99,,,-99.99,,2013-03-31 09:22:00,
2013-03-31 04:33:00,65.0,-99.9,30.01,WSW,257,9.0,9.0,-999,-99.99,,,-99.99,,2013-03-31 09:33:00,
2013-03-31 04:43:00,65.0,-99.9,30.01,WSW,247,9.0,9.0,-999,-99.99,,,-99.99,,2013-03-31 09:43:00,
2013-03-31 04:53:00,65.0,-99.9,30.01,WSW,254,8.0,9.0,-999,-99.99,,,-99.99,,2013-03-31 09:53:00,
2013-03-31 05:03:00,65.0,-99.9,30.00,WSW,247,9.0,9.0,-999,-99.99,,,-99.99,,2013-03-31 10:03:00,
2013-03-31 05:13:00,65.0,-99.9,30.00,WSW,247,9.0,10.0,-999,-99.99,,,-99.99,,2013-03-31 10:13:00,
2013-03-31 05:24:00,65.0,-99.9,30.00,WSW,246,9.0,10.0,-999,-99.99,,,-99.99,,2013-03-31 10:24:00,
2013-03-31 05:33:00,65.0,-99.9,30.00,WSW,244,9.0,10.0,-999,-99.99,,,-99.99,,2013-03-31 10:33:00,
2013-03-31 05:42:00,65.0,-99.9,30.00,WSW,247,8.0,9.0,-999,-99.99,,,-99.99,,2013-03-31 10:42:00,
2013-03-31 05:53:00,65.0,-99.9,30.00,WSW,251,5.0,6.0,-999,-99.99,,,-99.99,,2013-03-31 10:53:00,
2013-03-31 06:03:00,64.0,-99.9,30.00,WSW,249,5.0,6.0,-999,-99.99,,,-99.99,,2013-03-31 11:03:00,
2013-03-31 06:12:00,64.0,-99.9,30.00,WSW,254,4.0,5.0,-999,-99.99,,,-99.99,,2013-03-31 11:12:00,
2013-03-31 06:23:00,64.0,-99.9,30.00,West,267,3.0,3.0,-999,-99.99,,,-99.99,,2013-03-31 11:23:00,
2013-03-31 06:33:00,64.0,-99.9,30.00,West,274,3.0,4.0,-999,-99.99,,,-99.99,,2013-03-31 11:33:00,
2013-03-31 06:43:00,64.0,-99.9,30.01,West,271,4.0,6.0,-999,-99.99,,,-99.99,,2013-03-31 11:43:00,
2013-03-31 06:53:00,64.0,-99.9,30.01,WSW,252,7.0,8.0,-999,-99.99,,,-99.99,,2013-03-31 11:53:00,
2013-03-31 07:03:00,64.0,-99.9,30.01,WSW,255,8.0,10.0,-999,-99.99,,,-99.99,,2013-03-31 12:03:00,
2013-03-31 07:12:00,64.0,-99.9,30.01,West,261,9.0,9.0,-999,-99.99,,,-99.99,,2013-03-31 12:12:00,
2013-03-31 07:22:00,64.0,-99.9,30.02,West,280,9.0,9.0,-999,-99.99,,,-99.99,,2013-03-31 12:22:00,
2013-03-31 07:33:00,65.0,-99.9,30.01,West,266,10.0,12.0,-999,-99.99,,,-99.99,,2013-03-31 12:33:00,
2013-03-31 07:42:00,65.0,-99.9,30.01,West,268,9.0,11.0,-999,-99.99,,,-99.99,,2013-03-31 12:42:00,
2013-03-31 07:53:00,65.0,-99.9,30.02,West,266,8.0,9.0,-999,-99.99,,,-99.99,,2013-03-31 12:53:00,
2013-03-31 08:02:00,65.0,-99.9,30.02,West,265,7.0,9.0,-999,-99.99,,,-99.99,,2013-03-31 13:02:00,
2013-03-31 08:12:00,65.0,-99.9,30.03,WSW,254,7.0,8.0,-999,-99.99,,,-99.99,,2013-03-31 13:12:00,
2013-03-31 08:23:00,65.0,-99.9,30.03,SW,230,7.0,8.0,-999,-99.99,,,-99.99,,2013-03-31 13:23:00,
2013-03-31 08:33:00,65.0,-99.9,30.03,SW,228,8.0,9.0,-999,-99.99,,,-99.99,,2013-03-31 13:33:00,
2013-03-31 08:42:00,65.0,-99.9,30.03,SW,226,9.0,9.0,-999,-99.99,,,-99.99,,2013-03-31 13:42:00,
2013-03-31 08:53:00,65.0,-99.9,30.03,WSW,237,9.0,10.0,-999,-99.99,,,-99.99,,2013-03-31 13:53:00,
2013-03-31 09:03:00,65.0,-99.9,30.03,SW,232,9.0,9.0,-999,-99.99,,,-99.99,,2013-03-31 14:03:00,
2013-03-31 09:12:00,65.0,-99.9,30.03,SW,230,8.0,9.0,-999,-99.99,,,-99.99,,2013-03-31 14:12:00,
2013-03-31 09:23:00,65.0,-99.9,30.03,SW,219,8.0,8.0,-999,-99.99,,,-99.99,,2013-03-31 14:23:00,
2013-03-31 09:33:00,65.0,-99.9,30.03,SW,224,8.0,8.0,-999,-99.99,,,-99.99,,2013-03-31 14:33:00,
2013-03-31 09:43:00,65.0,-99.9,30.03,SW,226,9.0,9.0,-999,-99.99,,,-99.99,,2013-03-31 14:43:00,
2013-03-31 09:53:00,65.0,-99.9,30.03,SSW,213,9.0,9.0,-999,-99.99,,,-99.99,,2013-03-31 14:53:00,
2013-03-31 10:03:00,66.0,-99.9,30.03,SW,218,9.0,9.0,-999,-99.99,,,-99.99,,2013-03-31 15:03:00,
2013-03-31 10:13:00,66.0,-99.9,30.03,SW,225,10.0,10.0,-999,-99.99,,,-99.99,,2013-03-31 15:13:00,
2013-03-31 10:23:00,67.0,-99.9,30.03,SW,232,11.0,12.0,-999,-99.99,,,-99.99,,2013-03-31 15:23:00,
2013-03-31 10:34:00,67.0,-99.9,30.03,WSW,240,11.0,12.0,-999,-99.99,,,-99.99,,2013-03-31 15:34:00,
2013-03-31 10:44:00,67.0,-99.9,30.03,WSW,240,8.0,9.0,-999,-99.99,,,-99.99,,2013-03-31 15:44:00,
2013-03-31 10:54:00,68.0,-99.9,30.02,WSW,238,8.0,9.0,-999,-99.99,,,-99.99,,2013-03-31 15:54:00,
2013-03-31 11:03:00,68.0,-99.9,30.02,SW,228,8.0,9.0,-999,-99.99,,,-99.99,,2013-03-31 16:03:00,
2013-03-31 11:14:00,68.0,-99.9,30.02,SW,231,8.0,10.0,-999,-99.99,,,-99.99,,2013-03-31 16:14:00,
2013-03-31 11:23:00,69.0,-99.9,30.02,SW,233,8.0,11.0,-999,-99.99,,,-99.99,,2013-03-31 16:23:00,
2013-03-31 11:34:00,69.0,-99.9,30.02,SW,231,9.0,12.0,-999,-99.99,,,-99.99,,2013-03-31 16:34:00,
2013-03-31 11:43:00,69.0,-99.9,30.02,SW,234,9.0,11.0,-999,-99.99,,,-99.99,,2013-03-31 16:43:00,
2013-03-31 11:54:00,68.0,-99.9,30.01,WSW,237,9.0,10.0,-999,-99.99,,,-99.99,,2013-03-31 16:54:00,
2013-03-31 12:03:00,69.0,-99.9,30.02,WSW,244,8.0,9.0,-999,-99.99,,,-99.99,,2013-03-31 17:03:00,
2013-03-31 12:13:00,69.0,-99.9,30.02,WSW,250,7.0,9.0,-999,-99.99,,,-99.99,,2013-03-31 17:13:00,
2013-03-31 12:23:00,69.0,-99.9,30.01,SW,221,7.0,9.0,-999,-99.99,,,-99.99,,2013-03-31 17:23:00,
2013-03-31 12:33:00,69.0,-99.9,30.02,SW,217,8.0,9.0,-999,-99.99,,,-99.99,,2013-03-31 17:33:00,
2013-03-31 12:43:00,68.0,-99.9,30.02,SSW,213,7.0,9.0,-999,-99.99,,,-99.99,,2013-03-31 17:43:00,
2013-03-31 12:52:00,69.0,-99.9,30.02,SW,218,7.0,9.0,-999,-99.99,,,-99.99,,2013-03-31 17:52:00,
2013-03-31 13:03:00,69.0,-99.9,30.02,SW,216,8.0,9.0,-999,-99.99,,,-99.99,,2013-03-31 18:03:00,
2013-03-31 13:13:00,69.0,-99.9,30.01,SW,221,8.0,10.0,-999,-99.99,,,-99.99,,2013-03-31 18:13:00,
2013-03-31 13:22:00,70.0,-99.9,30.01,SW,232,6.0,9.0,-999,-99.99,,,-99.99,,2013-03-31 18:22:00,
2013-03-31 13:33:00,70.0,-99.9,30.01,SW,232,6.0,9.0,-999,-99.99,,,-99.99,,2013-03-31 18:33:00,
2013-03-31 13:43:00,69.0,-99.9,30.01,SW,218,10.0,11.0,-999,-99.99,,,-99.99,,2013-03-31 18:43:00,
2013-03-31 13:53:00,69.0,-99.9,30.00,SW,219,10.0,10.0,-999,-99.99,,,-99.99,,2013-03-31 18:53:00,
2013-03-31 14:03:00,70.0,-99.9,30.00,SW,223,9.0,11.0,-999,-99.99,,,-99.99,,2013-03-31 19:03:00,
2013-03-31 14:13:00,70.0,-99.9,30.00,SW,226,8.0,11.0,-999,-99.99,,,-99.99,,2013-03-31 19:13:00,
2013-03-31 14:23:00,70.0,-99.9,29.99,SW,215,8.0,9.0,-999,-99.99,,,-99.99,,2013-03-31 19:23:00,
2013-03-31 14:33:00,70.0,-99.9,29.99,SW,217,9.0,10.0,-999,-99.99,,,-99.99,,2013-03-31 19:33:00,
2013-03-31 14:43:00,70.0,-99.9,29.98,SSW,213,10.0,11.0,-999,-99.99,,,-99.99,,2013-03-31 19:43:00,
2013-03-31 14:54:00,69.0,-99.9,29.98,SW,214,11.0,12.0,-999,-99.99,,,-99.99,,2013-03-31 19:54:00,
2013-03-31 15:03:00,70.0,-99.9,29.98,SSW,211,11.0,12.0,-999,-99.99,,,-99.99,,2013-03-31 20:03:00,
2013-03-31 15:13:00,69.0,-99.9,29.98,SSW,210,11.0,12.0,-999,-99.99,,,-99.99,,2013-03-31 20:13:00,
2013-03-31 15:23:00,70.0,-99.9,29.97,SSW,208,11.0,12.0,-999,-99.99,,,-99.99,,2013-03-31 20:23:00,
2013-03-31 15:34:00,70.0,-99.9,29.97,SSW,210,10.0,11.0,-999,-99.99,,,-99.99,,2013-03-31 20:34:00,
2013-03-31 15:43:00,69.0,-99.9,29.96,SSW,204,11.0,12.0,-999,-99.99,,,-99.99,,2013-03-31 20:43:00,
2013-03-31 15:53:00,69.0,-99.9,29.96,SSW,207,11.0,12.0,-999,-99.99,,,-99.99,,2013-03-31 20:53:00,
2013-03-31 16:03:00,70.0,-99.9,29.96,SSW,213,11.0,12.0,-999,-99.99,,,-99.99,,2013-03-31 21:03:00,
2013-03-31 16:13:00,69.0,-99.9,29.96,SSW,211,9.0,10.0,-999,-99.99,,,-99.99,,2013-03-31 21:13:00,
2013-03-31 16:23:00,70.0,-99.9,29.95,SSW,213,8.0,9.0,-999,-99.99,,,-99.99,,2013-03-31 21:23:00,
2013-03-31 16:34:00,70.0,-99.9,29.95,SW,217,8.0,9.0,-999,-99.99,,,-99.99,,2013-03-31 21:34:00,
2013-03-31 16:44:00,70.0,-99.9,29.94,SW,214,9.0,10.0,-999,-99.99,,,-99.99,,2013-03-31 21:44:00,
2013-03-31 16:54:00,69.0,-99.9,29.93,SSW,209,11.0,11.0,-999,-99.99,,,-99.99,,2013-03-31 21:54:00,
2013-03-31 17:04:00,70.0,-99.9,29.93,SSW,211,10.0,11.0,-999,-99.99,,,-99.99,,2013-03-31 22:04:00,
2013-03-31 17:13:00,69.0,-99.9,29.93,SSW,205,11.0,12.0,-999,-99.99,,,-99.99,,2013-03-31 22:13:00,
2013-03-31 17:24:00,69.0,-99.9,29.92,SSW,205,12.0,13.0,-999,-99.99,,,-99.99,,2013-03-31 22:24:00,
2013-03-31 17:33:00,69.0,-99.9,29.92,SSW,205,12.0,13.0,-999,-99.99,,,-99.99,,2013-03-31 22:33:00,
2013-03-31 17:43:00,68.0,-99.9,29.92,SSW,202,13.0,14.0,-999,-99.99,,,-99.99,,2013-03-31 22:43:00,
2013-03-31 17:53:00,68.0,-99.9,29.93,SSW,205,13.0,14.0,-999,-99.99,,,-99.99,,2013-03-31 22:53:00,
2013-03-31 18:03:00,68.0,-99.9,29.93,SSW,206,12.0,13.0,-999,-99.99,,,-99.99,,2013-03-31 23:03:00,
2013-03-31 18:13:00,68.0,-99.9,29.93,SSW,209,12.0,13.0,-999,-99.99,,,-99.99,,2013-03-31 23:13:00,
2013-03-31 18:22:00,68.0,-99.9,29.93,SW,214,12.0,13.0,-999,-99.99,,,-99.99,,2013-03-31 23:22:00,
2013-03-31 18:33:00,68.0,-99.9,29.94,SW,214,13.0,14.0,-999,-99.99,,,-99.99,,2013-03-31 23:33:00,
2013-03-31 18:43:00,68.0,-99.9,29.94,SSW,211,13.0,14.0,-999,-99.99,,,-99.99,,2013-03-31 23:43:00,
2013-03-31 18:54:00,68.0,-99.9,29.95,SSW,211,13.0,14.0,-999,-99.99,,,-99.99,,2013-03-31 23:54:00,
2013-03-31 19:03:00,69.0,-99.9,29.95,SSW,213,13.0,15.0,-999,-99.99,,,-99.99,,2013-04-01 00:03:00,
2013-03-31 19:13:00,69.0,-99.9,29.94,SSW,213,15.0,16.0,-999,-99.99,,,-99.99,,2013-04-01 00:13:00,
2013-03-31 19:23:00,69.0,-99.9,29.94,SSW,212,15.0,16.0,-999,-99.99,,,-99.99,,2013-04-01 00:23:00,
2013-03-31 19:33:00,69.0,-99.9,29.94,SSW,213,15.0,17.0,-999,-99.99,,,-99.99,,2013-04-01 00:33:00,
2013-03-31 19:43:00,69.0,-99.9,29.94,SW,217,15.0,17.0,-999,-99.99,,,-99.99,,2013-04-01 00:43:00,
2013-03-31 19:53:00,69.0,-99.9,29.95,SW,228,15.0,17.0,-999,-99.99,,,-99.99,,2013-04-01 00:53:00,
2013-03-31 20:03:00,69.0,-99.9,29.95,SW,232,15.0,17.0,-999,-99.99,,,-99.99,,2013-04-01 01:03:00,
2013-03-31 20:13:00,69.0,-99.9,29.95,SW,225,14.0,16.0,-999,-99.99,,,-99.99,,2013-04-01 01:13:00,
2013-03-31 20:23:00,68.0,-99.9,29.96,WSW,240,13.0,17.0,-999,-99.99,,,-99.99,,2013-04-01 01:23:00,
2013-03-31 20:33:00,68.0,-99.9,29.96,WSW,255,21.0,26.0,-999,-99.99,,,-99.99,,2013-04-01 01:33:00,
2013-03-31 20:43:00,66.0,-99.9,29.96,West,277,18.0,21.0,-999,-99.99,,,-99.99,,2013-04-01 01:43:00,
2013-03-31 20:53:00,64.0,-99.9,29.95,NNW,342,7.0,8.0,-999,-99.99,,,-99.99,,2013-04-01 01:53:00,
2013-03-31 21:03:00,64.0,-99.9,29.94,NNE,15,2.0,3.0,-999,-99.99,,,-99.99,,2013-04-01 02:03:00,
2013-03-31 21:13:00,64.0,-99.9,29.94,ENE,71,2.0,3.0,-999,-99.99,,,-99.99,,2013-04-01 02:13:00,
2013-03-31 21:23:00,64.0,-99.9,29.93,SE,134,5.0,6.0,-999,-99.99,,,-99.99,,2013-04-01 02:23:00,
2013-03-31 21:33:00,64.0,-99.9,29.92,ESE,122,9.0,10.0,-999,-99.99,,,-99.99,,2013-04-01 02:33:00,
2013-03-31 21:43:00,65.0,-99.9,29.92,SE,139,11.0,11.0,-999,-99.99,,,-99.99,,2013-04-01 02:43:00,
2013-03-31 21:53:00,65.0,-99.9,29.91,SSE,152,11.0,12.0,-999,-99.99,,,-99.99,,2013-04-01 02:53:00,
2013-03-31 22:03:00,66.0,-99.9,29.91,SSE,153,11.0,11.0,-999,-99.99,,,-99.99,,2013-04-01 03:03:00,
2013-03-31 22:12:00,67.0,-99.9,29.91,SSE,156,11.0,11.0,-999,-99.99,,,-99.99,,2013-04-01 03:12:00,
2013-03-31 22:23:00,67.0,-99.9,29.92,SSE,163,11.0,12.0,-999,-99.99,,,-99.99,,2013-04-01 03:23:00,
2013-03-31 22:35:00,67.0,-99.9,29.92,South,172,9.0,10.0,-999,-99.99,,,-99.99,,2013-04-01 03:35:00,
2013-03-31 22:43:00,67.0,-99.9,29.92,South,186,9.0,9.0,-999,-99.99,,,-99.99,,2013-04-01 03:43:00,
2013-03-31 22:53:00,67.0,-99.9,29.93,SSW,199,9.0,10.0,-999,-99.99,,,-99.99,,2013-04-01 03:53:00,
2013-03-31 23:03:00,67.0,-99.9,29.92,SSW,198,9.0,10.0,-999,-99.99,,,-99.99,,2013-04-01 04:03:00,
2013-03-31 23:14:00,67.0,-99.9,29.92,SSW,201,11.0,12.0,-999,-99.99,,,-99.99,,2013-04-01 04:14:00,
2013-03-31 23:24:00,66.0,-99.9,29.92,SSW,212,9.0,11.0,-999,-99.99,,,-99.99,,2013-04-01 04:24:00,
2013-03-31 23:33:00,67.0,-99.9,29.92,SW,214,9.0,10.0,-999,-99.99,,,-99.99,,2013-04-01 04:33:00,
2013-03-31 23:44:00,67.0,-99.9,29.91,SSW,212,10.0,11.0,-999,-99.99,,,-99.99,,2013-04-01 04:44:00,
2013-03-31 23:53:00,66.0,-99.9,29.92,SW,226,11.0,13.0,-999,-99.99,,,-99.99,,2013-04-01 04:53:00,